UUOB 060800Z 12005MPS CAVOK M08/M14 Q1034 R11/810360 NOSIG
QNH:(hPa/inHg/mmHg)1034 / 30.53 / 776
QFE:(hPa/inHg/mmHg)1007 / 29.73 / 755
Temperature-8
Dew Point-14
Visibility> 10000
WeatherCAVOK
Cloud Cover
Transition Height500 m./2400 ft.
Transition LevelFL30
SQUAWK